Terminal Aerodrome Forecast
Issued by NWS

Home | Current Version | Previous Version | Graphics & Text | Print | Product List | Glossary On
Versions: 1 2 3 4 5 6 7 8 9 10 11 12 13 14 15 16 17 18 19 20 21 22 23 24 25
000
FTUS43 KGRB 141142
TAFATW
TAF
KATW 141142Z 1412/1512 30008KT P6SM SCT030
     FM141700 27008KT P6SM BKN035
     FM150300 24006KT P6SM SCT015 BKN030
      TEMPO 1504/1508 3SM -SN BKN015=

USA.gov is the U.S. government's official web portal to all federal, state and local government web resources and services.